Onyx Arrow — C6UH8 — position and weather

sailwx.info

Track history (hours):
 
Tides and Currents Weather Stations Pressure Air Temp Water Temp Dewpoint Dewpoint Depression Visibility Wind Speed Wind Dir Waves Ship Positions

Onyx Arrow

Last reported at 2018-Feb-19 07:58 UTC. Time now 2018-Feb-19 08:21 UTC.
Position N 53°55' E 007°51'.

Length 200 m; draft 7.9 m.

Type: Cargo ship. MMSI: 311918000.

Date/timePositionNaut miles runAvg speedWind from/ knotsBaromVisibWave heightAir tempDewpointWater temp
2018-Feb-19 07:58N 53°55' E 007°51'0 0.0
2018-Feb-19 07:22N 53°55' E 007°51'0 0.0
2018-Feb-19 06:49N 53°55' E 007°51'0 0.0
2018-Feb-19 06:28N 53°55' E 007°51'0 0.0
2018-Feb-19 05:58N 53°55' E 007°51'0 0.0
2018-Feb-19 05:19N 53°55' E 007°51'0 0.0
2018-Feb-19 04:55N 53°55' E 007°51'0 0.0
2018-Feb-19 04:01N 53°55' E 007°51'0 0.0
2018-Feb-19 03:49N 53°55' E 007°51'0 0.1
2018-Feb-19 03:28N 53°55' E 007°51'0 0.1
2018-Feb-19 02:58N 53°55' E 007°51'0 0.0
2018-Feb-18 22:58N 53°55' E 007°51'0 0.0
2018-Feb-18 22:28N 53°55' E 007°51'0 0.0
2018-Feb-18 21:58N 53°55' E 007°51'0 0.0
2018-Feb-18 21:28N 53°55' E 007°51'0 0.0
2018-Feb-18 20:58N 53°55' E 007°51'0 0.1
2018-Feb-18 20:28N 53°55' E 007°51'0 0.1
2018-Feb-18 19:58N 53°55' E 007°51'0 0.0
2018-Feb-18 19:25N 53°55' E 007°51'0 0.0
2018-Feb-18 18:55N 53°55' E 007°51'0 0.0
2018-Feb-18 18:28N 53°55' E 007°51'0 0.1
2018-Feb-18 18:01N 53°55' E 007°51'0 0.0
2018-Feb-18 17:22N 53°55' E 007°51'0 0.0
2018-Feb-18 15:48N 53°55' E 007°51'0 0.0
2018-Feb-18 15:27N 53°55' E 007°51'0 0.0
2018-Feb-18 14:57N 53°55' E 007°51'0 0.0
2018-Feb-18 14:27N 53°55' E 007°51'0 0.1
2018-Feb-18 13:54N 53°55' E 007°51'0 0.1
2018-Feb-18 13:27N 53°55' E 007°51'0 0.1
2018-Feb-18 13:00N 53°55' E 007°51'0 0.0
2018-Feb-18 12:30N 53°55' E 007°51'0 0.0
2018-Feb-18 12:00N 53°55' E 007°51'0 0.0
2018-Feb-18 11:30N 53°55' E 007°51'0 0.0
2018-Feb-18 11:00N 53°55' E 007°51'0 0.0
2018-Feb-18 10:27N 53°55' E 007°51'0 0.0
2018-Feb-18 09:54N 53°55' E 007°51'0 0.0
2018-Feb-18 09:24N 53°55' E 007°51'0 0.1
2018-Feb-18 09:00N 53°55' E 007°51'0 0.2
2018-Feb-18 08:30N 53°55' E 007°51'0 0.2
2018-Feb-18 08:00N 53°55' E 007°51'47 7.5
2018-Feb-18 01:48N 54°37' E 007°14'3 8.5
2018-Feb-18 01:30N 54°39' E 007°13'4 8.7
2018-Feb-18 01:01N 54°43' E 007°12'4 8.7
2018-Feb-18 00:30N 54°48' E 007°10'4 8.9
2018-Feb-18 00:00N 54°52' E 007°08'5 9.2
2018-Feb-17 23:30N 54°56' E 007°06'5 9.8
2018-Feb-17 23:00N 55°01' E 007°04'611.1
2018-Feb-17 22:30N 55°06' E 007°01'612.2
2018-Feb-17 21:59N 55°12' E 006°58'613.0
2018-Feb-17 21:30N 55°18' E 006°56'713.1
2018-Feb-17 20:58N 55°25' E 006°52'612.8
2018-Feb-17 20:29N 55°31' E 006°49'712.7
2018-Feb-17 19:57N 55°37' E 006°45'612.5
2018-Feb-17 19:29N 55°43' E 006°43'612.2
2018-Feb-17 18:59N 55°49' E 006°43'612.2
2018-Feb-17 18:28N 55°55' E 006°47'612.3
2018-Feb-17 18:00N 56°00' E 006°51'12612.1
2018-Feb-17 07:36N 57°39' E 009°14'612.2
2018-Feb-17 07:08N 57°42' E 009°23'2212.3
2018-Feb-17 05:22N 57°48' E 010°02'412.7
2018-Feb-17 05:00N 57°49' E 010°10'612.5
2018-Feb-17 04:30N 57°50' E 010°22'510.9
2018-Feb-17 04:00N 57°50' E 010°32'611.2
2018-Feb-17 03:30N 57°49' E 010°43'611.2
2018-Feb-17 03:00N 57°47' E 010°52'611.8
2018-Feb-17 02:30N 57°44' E 011°02'612.2
2018-Feb-17 02:00N 57°41' E 011°12'713.1
2018-Feb-17 01:30N 57°38' E 011°23'612.8
2018-Feb-17 01:00N 57°35' E 011°33'5 9.7
2018-Feb-17 00:30N 57°31' E 011°37'612.0
2018-Feb-17 00:00N 57°25' E 011°39'611.8
2018-Feb-16 23:30N 57°20' E 011°44'612.1
2018-Feb-16 23:00N 57°14' E 011°50'5811.2
2018-Feb-16 17:52N 56°19' E 012°21'411.2
2018-Feb-16 17:30N 56°15' E 012°24'611.7
2018-Feb-16 17:00N 56°10' E 012°29'510.6
2018-Feb-16 16:30N 56°06' E 012°35'4 8.6
2018-Feb-16 16:00N 56°03' E 012°40'510.5
2018-Feb-16 15:30N 55°58' E 012°42'611.5
2018-Feb-16 15:00N 55°52' E 012°44'611.4
2018-Feb-16 14:30N 55°47' E 012°49'612.0
2018-Feb-16 14:00N 55°42' E 012°54'510.4
2018-Feb-16 13:30N 55°37' E 012°59'0 0.7
2018-Feb-16 12:59N 55°37' E 012°60'0 0.0
2018-Feb-16 12:29N 55°37' E 012°60'0 0.0
2018-Feb-16 11:59N 55°37' E 012°60'0 0.0
2018-Feb-16 11:29N 55°37' E 012°60'0 0.0
2018-Feb-16 10:59N 55°37' E 012°60'0 0.0
2018-Feb-16 10:29N 55°37' E 012°60'0 0.0
2018-Feb-16 09:58N 55°37' E 012°60'0 0.0
2018-Feb-16 09:28N 55°37' E 012°60'0 0.0
2018-Feb-16 08:58N 55°37' E 012°60'0 0.0
2018-Feb-16 08:28N 55°37' E 012°60'0 0.0
2018-Feb-16 07:58N 55°37' E 012°60'0 0.0
2018-Feb-16 07:28N 55°37' E 012°60'0 0.0
2018-Feb-16 06:58N 55°37' E 012°60'0 0.0
2018-Feb-16 06:25N 55°37' E 012°60'0 0.0
2018-Feb-16 05:58N 55°37' E 012°60'0 0.0
2018-Feb-16 05:28N 55°37' E 012°60'0 0.0
2018-Feb-16 04:58N 55°37' E 012°60'0 0.0
2018-Feb-16 04:28N 55°37' E 012°60'0 0.0
2018-Feb-16 03:58N 55°37' E 012°60'0 0.0
2018-Feb-16 03:28N 55°37' E 012°60'0 0.0
2018-Feb-16 02:58N 55°37' E 012°60'0 0.0
2018-Feb-16 02:28N 55°37' E 012°60'0 0.0
2018-Feb-16 01:58N 55°37' E 012°60'0 0.0
2018-Feb-16 01:28N 55°37' E 012°60'0 0.0
2018-Feb-16 00:58N 55°37' E 012°60'0 0.0
2018-Feb-16 00:28N 55°37' E 012°60'0 0.0
2018-Feb-16 00:00N 55°37' E 012°60'2 3.8
2018-Feb-15 23:30N 55°39' E 012°57'612.4
2018-Feb-15 23:01N 55°44' E 012°53'714.1
2018-Feb-15 22:31N 55°50' E 012°46'714.0
2018-Feb-15 22:00N 55°57' E 012°43'713.5
2018-Feb-15 21:30N 56°03' E 012°39'4 8.2
2018-Feb-15 21:00N 56°06' E 012°33'4 8.5
2018-Feb-15 20:30N 56°09' E 012°27'6 9.3
2018-Feb-15 19:53N 56°12' E 012°19'4 9.9
2018-Feb-15 19:30N 56°16' E 012°18'5312.8
2018-Feb-15 15:20N 57°08' E 011°55'513.9
2018-Feb-15 15:00N 57°12' E 011°52'713.8
2018-Feb-15 14:30N 57°19' E 011°47'713.4
2018-Feb-15 14:00N 57°25' E 011°42'713.6
2018-Feb-15 13:30N 57°31' E 011°36'510.6
2018-Feb-15 13:00N 57°35' E 011°32'4 7.2
2018-Feb-15 12:30N 57°38' E 011°26'4 8.1
2018-Feb-15 12:00N 57°39' E 011°20'3 6.4
2018-Feb-15 11:30N 57°41' E 011°14'3 5.7
2018-Feb-15 11:00N 57°42' E 011°10'3 6.2
2018-Feb-15 10:30N 57°44' E 011°05'3 6.7
2018-Feb-15 10:00N 57°45' E 010°59'4 7.8
2018-Feb-15 09:30N 57°46' E 010°52'5 9.5
2018-Feb-15 09:00N 57°48' E 010°43'611.6
2018-Feb-15 08:30N 57°48' E 010°32'18814.2
2018-Feb-14 19:13N 55°33' E 006°32'615.6
2018-Feb-14 18:52N 55°29' E 006°27'12315.7
2018-Feb-14 11:04N 53°39' E 004°52'115.9
2018-Feb-14 10:59N 53°38' E 004°51'815.9
2018-Feb-14 10:31N 53°31' E 004°46'2015.7
2018-Feb-14 09:16N 53°13' E 004°32'415.7
2018-Feb-14 09:00N 53°10' E 004°29'815.9
2018-Feb-14 08:31N 53°02' E 004°25'815.9
2018-Feb-14 07:59N 52°55' E 004°19'815.5
2018-Feb-14 07:29N 52°48' E 004°11'815.5
2018-Feb-14 06:59N 52°43' E 004°02'715.7
2018-Feb-14 06:31N 52°37' E 003°54'816.1
2018-Feb-14 06:00N 52°31' E 003°45'916.3
2018-Feb-14 05:26N 52°25' E 003°35'5317.0
2018-Feb-14 02:20N 51°44' E 002°39'616.6
2018-Feb-14 01:58N 51°39' E 002°44'817.7
2018-Feb-14 01:30N 51°31' E 002°42'714.2
2018-Feb-14 01:00N 51°24' E 002°45'713.7
2018-Feb-14 00:31N 51°25' E 002°56'815.1
2018-Feb-14 00:01N 51°24' E 003°08'5 9.8
2018-Feb-13 23:30N 51°20' E 003°13'0 0.0
2018-Feb-13 23:00N 51°20' E 003°13'2 3.1
2018-Feb-13 22:30N 51°19' E 003°14'1 1.0
2018-Feb-13 21:59N 51°18' E 003°14'0 0.0
2018-Feb-13 21:29N 51°18' E 003°14'0 0.0
2018-Feb-13 20:59N 51°18' E 003°14'0 0.0
2018-Feb-13 20:29N 51°18' E 003°14'0 0.0
2018-Feb-13 19:59N 51°18' E 003°14'0 0.0
2018-Feb-13 19:29N 51°18' E 003°14'0 0.0
2018-Feb-13 18:55N 51°18' E 003°14'0 0.0
2018-Feb-13 18:28N 51°18' E 003°14'0 0.0
2018-Feb-13 17:58N 51°18' E 003°14'0 0.0
2018-Feb-13 17:28N 51°18' E 003°14'0 0.0
2018-Feb-13 16:58N 51°18' E 003°14'0 0.0
2018-Feb-13 16:28N 51°18' E 003°14'0 0.0
2018-Feb-13 15:58N 51°18' E 003°14'0 0.0
2018-Feb-13 15:28N 51°18' E 003°14'0 0.0
2018-Feb-13 14:58N 51°18' E 003°14'0 0.0
2018-Feb-13 14:28N 51°18' E 003°14'0 0.0
2018-Feb-13 13:55N 51°18' E 003°14'0 0.0
2018-Feb-13 13:28N 51°18' E 003°14'0 0.0
2018-Feb-13 12:58N 51°18' E 003°14'0 0.0
2018-Feb-13 12:28N 51°18' E 003°14'0 0.0
2018-Feb-13 11:58N 51°18' E 003°14'0 0.0
2018-Feb-13 11:25N 51°18' E 003°14'0 0.0
2018-Feb-13 10:58N 51°18' E 003°14'0 0.0
2018-Feb-13 10:28N 51°18' E 003°14'0 0.0
2018-Feb-13 09:58N 51°18' E 003°14'0 0.5
2018-Feb-13 09:31N 51°18' E 003°14'2 3.8
2018-Feb-13 09:01N 51°20' E 003°13'0 0.0
2018-Feb-13 08:30N 51°20' E 003°13'0 0.0
2018-Feb-13 08:00N 51°20' E 003°13'1 1.1
2018-Feb-13 07:31N 51°21' E 003°13'2 4.0
2018-Feb-13 07:01N 51°22' E 003°11'4 8.1
2018-Feb-13 06:30N 51°24' E 003°05'510.7
2018-Feb-13 06:00N 51°22' E 002°57'611.7
2018-Feb-13 05:30N 51°21' E 002°47'510.7
2018-Feb-13 04:59N 51°22' E 002°39'3 7.0
2018-Feb-13 04:30N 51°22' E 002°33'3 6.7
2018-Feb-13 04:00N 51°21' E 002°28'4 7.3
2018-Feb-13 03:31N 51°20' E 002°23'4 8.0
2018-Feb-13 03:00N 51°17' E 002°18'4 8.6
2018-Feb-13 02:30N 51°15' E 002°12'5 9.0
2018-Feb-13 02:00N 51°13' E 002°06'612.3
2018-Feb-13 01:30N 51°10' E 001°57'815.8
2018-Feb-13 01:00N 51°06' E 001°46'816.4
2018-Feb-13 00:31N 50°60' E 001°37'917.7
2018-Feb-13 00:00N 50°53' E 001°29'917.3
2018-Feb-12 23:29N 50°44' E 001°25'2116.1
2018-Feb-12 22:11N 50°30' E 001°01'315.5
2018-Feb-12 22:00N 50°29' E 000°57'815.7
2018-Feb-12 21:30N 50°28' E 000°45'916.0
2018-Feb-12 20:58N 50°26' E 000°32'716.2
2018-Feb-12 20:31N 50°24' E 000°20'816.6
2018-Feb-12 20:00N 50°22' E 000°08'816.9
2018-Feb-12 19:30N 50°20' W 000°05'917.1
2018-Feb-12 19:00N 50°18' W 000°18'2317.9
2018-Feb-12 17:43N 50°11' W 000°53'417.9
2018-Feb-12 17:30N 50°10' W 000°58'918.3
2018-Feb-12 17:01N 50°08' W 001°12'918.1
2018-Feb-12 16:30N 50°06' W 001°26'918.1
2018-Feb-12 16:00N 50°04' W 001°40'917.7
2018-Feb-12 15:30N 50°01' W 001°53'917.3
2018-Feb-12 14:59N 49°59' W 002°06'1516.7
2018-Feb-12 14:06N 49°55' W 002°28'216.5
2018-Feb-12 14:00N 49°55' W 002°31'816.4
2018-Feb-12 13:30N 49°53' W 002°43'816.1
2018-Feb-12 13:00N 49°51' W 002°55'815.9
2018-Feb-12 12:30N 49°50' W 003°08'816.1
2018-Feb-12 12:00N 49°50' W 003°20'816.1
2018-Feb-12 11:30N 49°50' W 003°33'816.0
2018-Feb-12 11:00N 49°49' W 003°45'815.8
2018-Feb-12 10:30N 49°49' W 003°57'915.7
2018-Feb-12 09:58N 49°49' W 004°10'715.7
2018-Feb-12 09:30N 49°48' W 004°22'815.7
2018-Feb-12 08:59N 49°48' W 004°34'815.7
2018-Feb-12 08:30N 49°49' W 004°46'1014.7
2018-Feb-12 07:48N 49°49' W 005°02'614.8
2018-Feb-12 07:24N 49°50' W 005°11'714.9
2018-Feb-12 06:55N 49°50' W 005°22'614.9
2018-Feb-12 06:30N 49°51' W 005°31'1814.2
2018-Feb-12 05:16N 49°55' W 005°58'311.9
2018-Feb-12 04:59N 49°58' W 006°00'2317.9
2018-Feb-12 03:42N 50°21' W 006°00'317.3
2018-Feb-12 03:30N 50°24' W 005°59'817.0
2018-Feb-12 03:01N 50°30' W 005°49'917.0
2018-Feb-12 02:30N 50°36' W 005°39'816.9
2018-Feb-12 02:00N 50°41' W 005°29'816.7
2018-Feb-12 01:30N 50°46' W 005°19'816.6
2018-Feb-12 01:00N 50°51' W 005°08'816.9
2018-Feb-12 00:31N 50°57' W 004°58'816.9
2018-Feb-12 00:01N 51°02' W 004°48'917.1
2018-Feb-11 23:31N 51°08' W 004°37'918.2
2018-Feb-11 23:00N 51°13' W 004°26'917.4
2018-Feb-11 22:30N 51°18' W 004°14'917.7
2018-Feb-11 21:59N 51°19' W 003°59'918.6
2018-Feb-11 21:30N 51°20' W 003°45'1318.4
2018-Feb-11 20:47N 51°21' W 003°24'415.9
2018-Feb-11 20:30N 51°21' W 003°17'611.8
2018-Feb-11 20:00N 51°22' W 003°08'918.6
2018-Feb-11 19:30N 51°27' W 002°56'815.5
2018-Feb-11 19:00N 51°30' W 002°44'0 0.8
2018-Feb-11 18:30N 51°30' W 002°44'0 0.9
2018-Feb-11 18:00N 51°30' W 002°43'0 0.0
2018-Feb-11 17:30N 51°30' W 002°43'0 0.0
2018-Feb-11 17:00N 51°30' W 002°43'0 0.0
2018-Feb-11 16:30N 51°30' W 002°43'0 0.0
2018-Feb-11 16:00N 51°30' W 002°43'0 0.0
2018-Feb-11 15:30N 51°30' W 002°43'0 0.0
2018-Feb-11 15:00N 51°30' W 002°43'0 0.0
2018-Feb-11 14:30N 51°30' W 002°43'0 0.0
2018-Feb-11 14:00N 51°30' W 002°43'0 0.0
2018-Feb-11 13:30N 51°30' W 002°43'0 0.0
2018-Feb-11 13:00N 51°30' W 002°43'0 0.0
2018-Feb-11 12:30N 51°30' W 002°43'0 0.0
2018-Feb-11 12:00N 51°30' W 002°43'0 0.0
2018-Feb-11 11:30N 51°30' W 002°43'0 0.0
2018-Feb-11 11:00N 51°30' W 002°43'0 0.0
2018-Feb-11 10:30N 51°30' W 002°43'0 0.0
2018-Feb-11 10:00N 51°30' W 002°43'0 0.0
2018-Feb-11 09:30N 51°30' W 002°43'0 0.0
2018-Feb-11 09:00N 51°30' W 002°43'0 0.0
2018-Feb-11 08:30N 51°30' W 002°43'0 0.0
2018-Feb-11 08:00N 51°30' W 002°43'0 0.0
2018-Feb-11 07:30N 51°30' W 002°43'0 0.0
2018-Feb-11 07:00N 51°30' W 002°43'0 0.0
2018-Feb-11 06:30N 51°30' W 002°43'0 0.0
2018-Feb-11 06:00N 51°30' W 002°43'0 0.0
2018-Feb-11 05:27N 51°30' W 002°43'0 0.0
2018-Feb-11 05:00N 51°30' W 002°43'0 0.0
2018-Feb-11 04:30N 51°30' W 002°43'0 0.0
2018-Feb-11 04:00N 51°30' W 002°43'0 0.0
2018-Feb-11 03:30N 51°30' W 002°43'0 0.0
2018-Feb-11 03:00N 51°30' W 002°43'0 0.0
2018-Feb-11 02:30N 51°30' W 002°43'0 0.0
2018-Feb-11 02:00N 51°30' W 002°43'0 0.0
2018-Feb-11 01:30N 51°30' W 002°43'0 0.0
2018-Feb-11 01:00N 51°30' W 002°43'0 0.0
2018-Feb-11 00:30N 51°30' W 002°43'0 0.0
2018-Feb-11 00:00N 51°30' W 002°43'0 0.0
2018-Feb-10 23:30N 51°30' W 002°43'0 0.0
2018-Feb-10 23:00N 51°30' W 002°43'0 0.0
2018-Feb-10 22:30N 51°30' W 002°43'0 0.0
2018-Feb-10 22:00N 51°30' W 002°43'0 0.0
2018-Feb-10 21:30N 51°30' W 002°43'0 0.0
2018-Feb-10 21:00N 51°30' W 002°43'0 0.0
2018-Feb-10 20:27N 51°30' W 002°43'0 0.0
2018-Feb-10 20:00N 51°30' W 002°43'0 0.0
2018-Feb-10 19:30N 51°30' W 002°43'0 0.0
2018-Feb-10 18:59N 51°30' W 002°43'0 0.0
2018-Feb-10 18:29N 51°30' W 002°43'0 0.0
2018-Feb-10 17:59N 51°30' W 002°43'0 0.0
2018-Feb-10 17:29N 51°30' W 002°43'0 0.8
2018-Feb-10 17:00N 51°30' W 002°43'0 0.2
2018-Feb-10 16:30N 51°30' W 002°44'2 4.3
2018-Feb-10 16:00N 51°30' W 002°47'2 4.2
2018-Feb-10 15:30N 51°29' W 002°50'0 0.8
2018-Feb-10 15:00N 51°29' W 002°50'3 5.2
2018-Feb-10 14:30N 51°28' W 002°54'4 8.3
2018-Feb-10 14:00N 51°26' W 003°00'510.4
2018-Feb-10 13:30N 51°22' W 003°06'510.5
2018-Feb-10 13:00N 51°21' W 003°14'2 3.7
2018-Feb-10 12:30N 51°21' W 003°17'2 4.1
2018-Feb-10 12:00N 51°20' W 003°20'5 9.4
2018-Feb-10 11:27N 51°20' W 003°29'4 9.5
2018-Feb-10 10:59N 51°20' W 003°36'6 9.0
2018-Feb-10 10:21N 51°19' W 003°45'3 8.4
2018-Feb-10 09:57N 51°19' W 003°50'4 8.6
2018-Feb-10 09:29N 51°19' W 003°56'611.6
2018-Feb-10 08:58N 51°18' W 004°06'511.1
2018-Feb-10 08:30N 51°17' W 004°14'613.0
2018-Feb-10 08:00N 51°14' W 004°22'815.1
2018-Feb-10 07:31N 51°09' W 004°31'714.9
2018-Feb-10 07:01N 51°03' W 004°39'714.8
2018-Feb-10 06:31N 50°58' W 004°48'815.0
2018-Feb-10 06:00N 50°53' W 004°57'715.0
2018-Feb-10 05:30N 50°48' W 005°06'815.0
2018-Feb-10 05:00N 50°43' W 005°15'714.9
2018-Feb-10 04:30N 50°38' W 005°23'714.9
2018-Feb-10 04:01N 50°33' W 005°32'714.8
2018-Feb-10 03:30N 50°28' W 005°41'714.8
2018-Feb-10 03:00N 50°23' W 005°50'813.6
2018-Feb-10 02:24N 50°16' W 005°54'614.3
2018-Feb-10 02:00N 50°10' W 005°53'714.3
2018-Feb-10 01:29N 50°02' W 005°53'  
Track history (hours):
 
Tides and Currents Weather Stations Pressure Air Temp Water Temp Dewpoint Dewpoint Depression Visibility Wind Speed Wind Dir Waves Ship Positions

Onyx Arrow

Last reported at 2018-Feb-19 07:58 UTC. Time now 2018-Feb-19 08:21 UTC.
Position N 53°55' E 007°51'.

Length 200 m; draft 7.9 m.

Type: Cargo ship. MMSI: 311918000.

Date/timePositionNaut miles runAvg speedWind from/ knotsBaromVisibWave heightAir tempDewpointWater temp
2018-Feb-19 07:58N 53°55' E 007°51'0 0.0
2018-Feb-19 07:22N 53°55' E 007°51'0 0.0
2018-Feb-19 06:49N 53°55' E 007°51'0 0.0
2018-Feb-19 06:28N 53°55' E 007°51'0 0.0
2018-Feb-19 05:58N 53°55' E 007°51'0 0.0
2018-Feb-19 05:19N 53°55' E 007°51'0 0.0
2018-Feb-19 04:55N 53°55' E 007°51'0 0.0
2018-Feb-19 04:01N 53°55' E 007°51'0 0.0
2018-Feb-19 03:49N 53°55' E 007°51'0 0.1
2018-Feb-19 03:28N 53°55' E 007°51'0 0.1
2018-Feb-19 02:58N 53°55' E 007°51'0 0.0
2018-Feb-18 22:58N 53°55' E 007°51'0 0.0
2018-Feb-18 22:28N 53°55' E 007°51'0 0.0
2018-Feb-18 21:58N 53°55' E 007°51'0 0.0
2018-Feb-18 21:28N 53°55' E 007°51'0 0.0
2018-Feb-18 20:58N 53°55' E 007°51'0 0.1
2018-Feb-18 20:28N 53°55' E 007°51'0 0.1
2018-Feb-18 19:58N 53°55' E 007°51'0 0.0
2018-Feb-18 19:25N 53°55' E 007°51'0 0.0
2018-Feb-18 18:55N 53°55' E 007°51'0 0.0
2018-Feb-18 18:28N 53°55' E 007°51'0 0.1
2018-Feb-18 18:01N 53°55' E 007°51'0 0.0
2018-Feb-18 17:22N 53°55' E 007°51'0 0.0
2018-Feb-18 15:48N 53°55' E 007°51'0 0.0
2018-Feb-18 15:27N 53°55' E 007°51'0 0.0
2018-Feb-18 14:57N 53°55' E 007°51'0 0.0
2018-Feb-18 14:27N 53°55' E 007°51'0 0.1
2018-Feb-18 13:54N 53°55' E 007°51'0 0.1
2018-Feb-18 13:27N 53°55' E 007°51'0 0.1
2018-Feb-18 13:00N 53°55' E 007°51'0 0.0
2018-Feb-18 12:30N 53°55' E 007°51'0 0.0
2018-Feb-18 12:00N 53°55' E 007°51'0 0.0
2018-Feb-18 11:30N 53°55' E 007°51'0 0.0
2018-Feb-18 11:00N 53°55' E 007°51'0 0.0
2018-Feb-18 10:27N 53°55' E 007°51'0 0.0
2018-Feb-18 09:54N 53°55' E 007°51'0 0.0
2018-Feb-18 09:24N 53°55' E 007°51'0 0.1
2018-Feb-18 09:00N 53°55' E 007°51'0 0.2
2018-Feb-18 08:30N 53°55' E 007°51'0 0.2
2018-Feb-18 08:00N 53°55' E 007°51'47 7.5
2018-Feb-18 01:48N 54°37' E 007°14'3 8.5
2018-Feb-18 01:30N 54°39' E 007°13'4 8.7
2018-Feb-18 01:01N 54°43' E 007°12'4 8.7
2018-Feb-18 00:30N 54°48' E 007°10'4 8.9
2018-Feb-18 00:00N 54°52' E 007°08'5 9.2
2018-Feb-17 23:30N 54°56' E 007°06'5 9.8
2018-Feb-17 23:00N 55°01' E 007°04'611.1
2018-Feb-17 22:30N 55°06' E 007°01'612.2
2018-Feb-17 21:59N 55°12' E 006°58'613.0
2018-Feb-17 21:30N 55°18' E 006°56'713.1
2018-Feb-17 20:58N 55°25' E 006°52'612.8
2018-Feb-17 20:29N 55°31' E 006°49'712.7
2018-Feb-17 19:57N 55°37' E 006°45'612.5
2018-Feb-17 19:29N 55°43' E 006°43'612.2
2018-Feb-17 18:59N 55°49' E 006°43'612.2
2018-Feb-17 18:28N 55°55' E 006°47'612.3
2018-Feb-17 18:00N 56°00' E 006°51'12612.1
2018-Feb-17 07:36N 57°39' E 009°14'612.2
2018-Feb-17 07:08N 57°42' E 009°23'2212.3
2018-Feb-17 05:22N 57°48' E 010°02'412.7
2018-Feb-17 05:00N 57°49' E 010°10'612.5
2018-Feb-17 04:30N 57°50' E 010°22'510.9
2018-Feb-17 04:00N 57°50' E 010°32'611.2
2018-Feb-17 03:30N 57°49' E 010°43'611.2
2018-Feb-17 03:00N 57°47' E 010°52'611.8
2018-Feb-17 02:30N 57°44' E 011°02'612.2
2018-Feb-17 02:00N 57°41' E 011°12'713.1
2018-Feb-17 01:30N 57°38' E 011°23'612.8
2018-Feb-17 01:00N 57°35' E 011°33'5 9.7
2018-Feb-17 00:30N 57°31' E 011°37'612.0
2018-Feb-17 00:00N 57°25' E 011°39'611.8
2018-Feb-16 23:30N 57°20' E 011°44'612.1
2018-Feb-16 23:00N 57°14' E 011°50'5811.2
2018-Feb-16 17:52N 56°19' E 012°21'411.2
2018-Feb-16 17:30N 56°15' E 012°24'611.7
2018-Feb-16 17:00N 56°10' E 012°29'510.6
2018-Feb-16 16:30N 56°06' E 012°35'4 8.6
2018-Feb-16 16:00N 56°03' E 012°40'510.5
2018-Feb-16 15:30N 55°58' E 012°42'611.5
2018-Feb-16 15:00N 55°52' E 012°44'611.4
2018-Feb-16 14:30N 55°47' E 012°49'612.0
2018-Feb-16 14:00N 55°42' E 012°54'510.4
2018-Feb-16 13:30N 55°37' E 012°59'0 0.7
2018-Feb-16 12:59N 55°37' E 012°60'0 0.0
2018-Feb-16 12:29N 55°37' E 012°60'0 0.0
2018-Feb-16 11:59N 55°37' E 012°60'0 0.0
2018-Feb-16 11:29N 55°37' E 012°60'0 0.0
2018-Feb-16 10:59N 55°37' E 012°60'0 0.0
2018-Feb-16 10:29N 55°37' E 012°60'0 0.0
2018-Feb-16 09:58N 55°37' E 012°60'0 0.0
2018-Feb-16 09:28N 55°37' E 012°60'0 0.0
2018-Feb-16 08:58N 55°37' E 012°60'0 0.0
2018-Feb-16 08:28N 55°37' E 012°60'0 0.0
2018-Feb-16 07:58N 55°37' E 012°60'0 0.0
2018-Feb-16 07:28N 55°37' E 012°60'0 0.0
2018-Feb-16 06:58N 55°37' E 012°60'0 0.0
2018-Feb-16 06:25N 55°37' E 012°60'0 0.0
2018-Feb-16 05:58N 55°37' E 012°60'0 0.0
2018-Feb-16 05:28N 55°37' E 012°60'0 0.0
2018-Feb-16 04:58N 55°37' E 012°60'0 0.0
2018-Feb-16 04:28N 55°37' E 012°60'0 0.0
2018-Feb-16 03:58N 55°37' E 012°60'0 0.0
2018-Feb-16 03:28N 55°37' E 012°60'0 0.0
2018-Feb-16 02:58N 55°37' E 012°60'0 0.0
2018-Feb-16 02:28N 55°37' E 012°60'0 0.0
2018-Feb-16 01:58N 55°37' E 012°60'0 0.0
2018-Feb-16 01:28N 55°37' E 012°60'0 0.0
2018-Feb-16 00:58N 55°37' E 012°60'0 0.0
2018-Feb-16 00:28N 55°37' E 012°60'0 0.0
2018-Feb-16 00:00N 55°37' E 012°60'2 3.8
2018-Feb-15 23:30N 55°39' E 012°57'612.4
2018-Feb-15 23:01N 55°44' E 012°53'714.1
2018-Feb-15 22:31N 55°50' E 012°46'714.0
2018-Feb-15 22:00N 55°57' E 012°43'713.5
2018-Feb-15 21:30N 56°03' E 012°39'4 8.2
2018-Feb-15 21:00N 56°06' E 012°33'4 8.5
2018-Feb-15 20:30N 56°09' E 012°27'6 9.3
2018-Feb-15 19:53N 56°12' E 012°19'4 9.9
2018-Feb-15 19:30N 56°16' E 012°18'5312.8
2018-Feb-15 15:20N 57°08' E 011°55'513.9
2018-Feb-15 15:00N 57°12' E 011°52'713.8
2018-Feb-15 14:30N 57°19' E 011°47'713.4
2018-Feb-15 14:00N 57°25' E 011°42'713.6
2018-Feb-15 13:30N 57°31' E 011°36'510.6
2018-Feb-15 13:00N 57°35' E 011°32'4 7.2
2018-Feb-15 12:30N 57°38' E 011°26'4 8.1
2018-Feb-15 12:00N 57°39' E 011°20'3 6.4
2018-Feb-15 11:30N 57°41' E 011°14'3 5.7
2018-Feb-15 11:00N 57°42' E 011°10'3 6.2
2018-Feb-15 10:30N 57°44' E 011°05'3 6.7
2018-Feb-15 10:00N 57°45' E 010°59'4 7.8
2018-Feb-15 09:30N 57°46' E 010°52'5 9.5
2018-Feb-15 09:00N 57°48' E 010°43'611.6
2018-Feb-15 08:30N 57°48' E 010°32'18814.2
2018-Feb-14 19:13N 55°33' E 006°32'615.6
2018-Feb-14 18:52N 55°29' E 006°27'12315.7
2018-Feb-14 11:04N 53°39' E 004°52'115.9
2018-Feb-14 10:59N 53°38' E 004°51'815.9
2018-Feb-14 10:31N 53°31' E 004°46'2015.7
2018-Feb-14 09:16N 53°13' E 004°32'415.7
2018-Feb-14 09:00N 53°10' E 004°29'815.9
2018-Feb-14 08:31N 53°02' E 004°25'815.9
2018-Feb-14 07:59N 52°55' E 004°19'815.5
2018-Feb-14 07:29N 52°48' E 004°11'815.5
2018-Feb-14 06:59N 52°43' E 004°02'715.7
2018-Feb-14 06:31N 52°37' E 003°54'816.1
2018-Feb-14 06:00N 52°31' E 003°45'916.3
2018-Feb-14 05:26N 52°25' E 003°35'5317.0
2018-Feb-14 02:20N 51°44' E 002°39'616.6
2018-Feb-14 01:58N 51°39' E 002°44'817.7
2018-Feb-14 01:30N 51°31' E 002°42'714.2
2018-Feb-14 01:00N 51°24' E 002°45'713.7
2018-Feb-14 00:31N 51°25' E 002°56'815.1
2018-Feb-14 00:01N 51°24' E 003°08'5 9.8
2018-Feb-13 23:30N 51°20' E 003°13'0 0.0
2018-Feb-13 23:00N 51°20' E 003°13'2 3.1
2018-Feb-13 22:30N 51°19' E 003°14'1 1.0
2018-Feb-13 21:59N 51°18' E 003°14'0 0.0
2018-Feb-13 21:29N 51°18' E 003°14'0 0.0
2018-Feb-13 20:59N 51°18' E 003°14'0 0.0
2018-Feb-13 20:29N 51°18' E 003°14'0 0.0
2018-Feb-13 19:59N 51°18' E 003°14'0 0.0
2018-Feb-13 19:29N 51°18' E 003°14'0 0.0
2018-Feb-13 18:55N 51°18' E 003°14'0 0.0
2018-Feb-13 18:28N 51°18' E 003°14'0 0.0
2018-Feb-13 17:58N 51°18' E 003°14'0 0.0
2018-Feb-13 17:28N 51°18' E 003°14'0 0.0
2018-Feb-13 16:58N 51°18' E 003°14'0 0.0
2018-Feb-13 16:28N 51°18' E 003°14'0 0.0
2018-Feb-13 15:58N 51°18' E 003°14'0 0.0
2018-Feb-13 15:28N 51°18' E 003°14'0 0.0
2018-Feb-13 14:58N 51°18' E 003°14'0 0.0
2018-Feb-13 14:28N 51°18' E 003°14'0 0.0
2018-Feb-13 13:55N 51°18' E 003°14'0 0.0
2018-Feb-13 13:28N 51°18' E 003°14'0 0.0
2018-Feb-13 12:58N 51°18' E 003°14'0 0.0
2018-Feb-13 12:28N 51°18' E 003°14'0 0.0
2018-Feb-13 11:58N 51°18' E 003°14'0 0.0
2018-Feb-13 11:25N 51°18' E 003°14'0 0.0
2018-Feb-13 10:58N 51°18' E 003°14'0 0.0
2018-Feb-13 10:28N 51°18' E 003°14'0 0.0
2018-Feb-13 09:58N 51°18' E 003°14'0 0.5
2018-Feb-13 09:31N 51°18' E 003°14'2 3.8
2018-Feb-13 09:01N 51°20' E 003°13'0 0.0
2018-Feb-13 08:30N 51°20' E 003°13'0 0.0
2018-Feb-13 08:00N 51°20' E 003°13'1 1.1
2018-Feb-13 07:31N 51°21' E 003°13'2 4.0
2018-Feb-13 07:01N 51°22' E 003°11'4 8.1
2018-Feb-13 06:30N 51°24' E 003°05'510.7
2018-Feb-13 06:00N 51°22' E 002°57'611.7
2018-Feb-13 05:30N 51°21' E 002°47'510.7
2018-Feb-13 04:59N 51°22' E 002°39'3 7.0
2018-Feb-13 04:30N 51°22' E 002°33'3 6.7
2018-Feb-13 04:00N 51°21' E 002°28'4 7.3
2018-Feb-13 03:31N 51°20' E 002°23'4 8.0
2018-Feb-13 03:00N 51°17' E 002°18'4 8.6
2018-Feb-13 02:30N 51°15' E 002°12'5 9.0
2018-Feb-13 02:00N 51°13' E 002°06'612.3
2018-Feb-13 01:30N 51°10' E 001°57'815.8
2018-Feb-13 01:00N 51°06' E 001°46'816.4
2018-Feb-13 00:31N 50°60' E 001°37'917.7
2018-Feb-13 00:00N 50°53' E 001°29'917.3
2018-Feb-12 23:29N 50°44' E 001°25'2116.1
2018-Feb-12 22:11N 50°30' E 001°01'315.5
2018-Feb-12 22:00N 50°29' E 000°57'815.7
2018-Feb-12 21:30N 50°28' E 000°45'916.0
2018-Feb-12 20:58N 50°26' E 000°32'716.2
2018-Feb-12 20:31N 50°24' E 000°20'816.6
2018-Feb-12 20:00N 50°22' E 000°08'816.9
2018-Feb-12 19:30N 50°20' W 000°05'917.1
2018-Feb-12 19:00N 50°18' W 000°18'2317.9
2018-Feb-12 17:43N 50°11' W 000°53'417.9
2018-Feb-12 17:30N 50°10' W 000°58'918.3
2018-Feb-12 17:01N 50°08' W 001°12'918.1
2018-Feb-12 16:30N 50°06' W 001°26'918.1
2018-Feb-12 16:00N 50°04' W 001°40'917.7
2018-Feb-12 15:30N 50°01' W 001°53'917.3
2018-Feb-12 14:59N 49°59' W 002°06'1516.7
2018-Feb-12 14:06N 49°55' W 002°28'216.5
2018-Feb-12 14:00N 49°55' W 002°31'816.4
2018-Feb-12 13:30N 49°53' W 002°43'816.1
2018-Feb-12 13:00N 49°51' W 002°55'815.9
2018-Feb-12 12:30N 49°50' W 003°08'816.1
2018-Feb-12 12:00N 49°50' W 003°20'816.1
2018-Feb-12 11:30N 49°50' W 003°33'816.0
2018-Feb-12 11:00N 49°49' W 003°45'815.8
2018-Feb-12 10:30N 49°49' W 003°57'915.7
2018-Feb-12 09:58N 49°49' W 004°10'715.7
2018-Feb-12 09:30N 49°48' W 004°22'815.7
2018-Feb-12 08:59N 49°48' W 004°34'815.7
2018-Feb-12 08:30N 49°49' W 004°46'1014.7
2018-Feb-12 07:48N 49°49' W 005°02'614.8
2018-Feb-12 07:24N 49°50' W 005°11'714.9
2018-Feb-12 06:55N 49°50' W 005°22'614.9
2018-Feb-12 06:30N 49°51' W 005°31'1814.2
2018-Feb-12 05:16N 49°55' W 005°58'311.9
2018-Feb-12 04:59N 49°58' W 006°00'2317.9
2018-Feb-12 03:42N 50°21' W 006°00'317.3
2018-Feb-12 03:30N 50°24' W 005°59'817.0
2018-Feb-12 03:01N 50°30' W 005°49'917.0
2018-Feb-12 02:30N 50°36' W 005°39'816.9
2018-Feb-12 02:00N 50°41' W 005°29'816.7
2018-Feb-12 01:30N 50°46' W 005°19'816.6
2018-Feb-12 01:00N 50°51' W 005°08'816.9
2018-Feb-12 00:31N 50°57' W 004°58'816.9
2018-Feb-12 00:01N 51°02' W 004°48'917.1
2018-Feb-11 23:31N 51°08' W 004°37'918.2
2018-Feb-11 23:00N 51°13' W 004°26'917.4
2018-Feb-11 22:30N 51°18' W 004°14'917.7
2018-Feb-11 21:59N 51°19' W 003°59'918.6
2018-Feb-11 21:30N 51°20' W 003°45'1318.4
2018-Feb-11 20:47N 51°21' W 003°24'415.9
2018-Feb-11 20:30N 51°21' W 003°17'611.8
2018-Feb-11 20:00N 51°22' W 003°08'918.6
2018-Feb-11 19:30N 51°27' W 002°56'815.5
2018-Feb-11 19:00N 51°30' W 002°44'0 0.8
2018-Feb-11 18:30N 51°30' W 002°44'0 0.9
2018-Feb-11 18:00N 51°30' W 002°43'0 0.0
2018-Feb-11 17:30N 51°30' W 002°43'0 0.0
2018-Feb-11 17:00N 51°30' W 002°43'0 0.0
2018-Feb-11 16:30N 51°30' W 002°43'0 0.0
2018-Feb-11 16:00N 51°30' W 002°43'0 0.0
2018-Feb-11 15:30N 51°30' W 002°43'0 0.0
2018-Feb-11 15:00N 51°30' W 002°43'0 0.0
2018-Feb-11 14:30N 51°30' W 002°43'0 0.0
2018-Feb-11 14:00N 51°30' W 002°43'0 0.0
2018-Feb-11 13:30N 51°30' W 002°43'0 0.0
2018-Feb-11 13:00N 51°30' W 002°43'0 0.0
2018-Feb-11 12:30N 51°30' W 002°43'0 0.0
2018-Feb-11 12:00N 51°30' W 002°43'0 0.0
2018-Feb-11 11:30N 51°30' W 002°43'0 0.0
2018-Feb-11 11:00N 51°30' W 002°43'0 0.0
2018-Feb-11 10:30N 51°30' W 002°43'0 0.0
2018-Feb-11 10:00N 51°30' W 002°43'0 0.0
2018-Feb-11 09:30N 51°30' W 002°43'0 0.0
2018-Feb-11 09:00N 51°30' W 002°43'0 0.0
2018-Feb-11 08:30N 51°30' W 002°43'0 0.0
2018-Feb-11 08:00N 51°30' W 002°43'0 0.0
2018-Feb-11 07:30N 51°30' W 002°43'0 0.0
2018-Feb-11 07:00N 51°30' W 002°43'0 0.0
2018-Feb-11 06:30N 51°30' W 002°43'0 0.0
2018-Feb-11 06:00N 51°30' W 002°43'0 0.0
2018-Feb-11 05:27N 51°30' W 002°43'0 0.0
2018-Feb-11 05:00N 51°30' W 002°43'0 0.0
2018-Feb-11 04:30N 51°30' W 002°43'0 0.0
2018-Feb-11 04:00N 51°30' W 002°43'0 0.0
2018-Feb-11 03:30N 51°30' W 002°43'0 0.0
2018-Feb-11 03:00N 51°30' W 002°43'0 0.0
2018-Feb-11 02:30N 51°30' W 002°43'0 0.0
2018-Feb-11 02:00N 51°30' W 002°43'0 0.0
2018-Feb-11 01:30N 51°30' W 002°43'0 0.0
2018-Feb-11 01:00N 51°30' W 002°43'0 0.0
2018-Feb-11 00:30N 51°30' W 002°43'0 0.0
2018-Feb-11 00:00N 51°30' W 002°43'0 0.0
2018-Feb-10 23:30N 51°30' W 002°43'0 0.0
2018-Feb-10 23:00N 51°30' W 002°43'0 0.0
2018-Feb-10 22:30N 51°30' W 002°43'0 0.0
2018-Feb-10 22:00N 51°30' W 002°43'0 0.0
2018-Feb-10 21:30N 51°30' W 002°43'0 0.0
2018-Feb-10 21:00N 51°30' W 002°43'0 0.0
2018-Feb-10 20:27N 51°30' W 002°43'0 0.0
2018-Feb-10 20:00N 51°30' W 002°43'0 0.0
2018-Feb-10 19:30N 51°30' W 002°43'0 0.0
2018-Feb-10 18:59N 51°30' W 002°43'0 0.0
2018-Feb-10 18:29N 51°30' W 002°43'0 0.0
2018-Feb-10 17:59N 51°30' W 002°43'0 0.0
2018-Feb-10 17:29N 51°30' W 002°43'0 0.8
2018-Feb-10 17:00N 51°30' W 002°43'0 0.2
2018-Feb-10 16:30N 51°30' W 002°44'2 4.3
2018-Feb-10 16:00N 51°30' W 002°47'2 4.2
2018-Feb-10 15:30N 51°29' W 002°50'0 0.8
2018-Feb-10 15:00N 51°29' W 002°50'3 5.2
2018-Feb-10 14:30N 51°28' W 002°54'4 8.3
2018-Feb-10 14:00N 51°26' W 003°00'510.4
2018-Feb-10 13:30N 51°22' W 003°06'510.5
2018-Feb-10 13:00N 51°21' W 003°14'2 3.7
2018-Feb-10 12:30N 51°21' W 003°17'2 4.1
2018-Feb-10 12:00N 51°20' W 003°20'5 9.4
2018-Feb-10 11:27N 51°20' W 003°29'4 9.5
2018-Feb-10 10:59N 51°20' W 003°36'6 9.0
2018-Feb-10 10:21N 51°19' W 003°45'3 8.4
2018-Feb-10 09:57N 51°19' W 003°50'4 8.6
2018-Feb-10 09:29N 51°19' W 003°56'611.6
2018-Feb-10 08:58N 51°18' W 004°06'511.1
2018-Feb-10 08:30N 51°17' W 004°14'613.0
2018-Feb-10 08:00N 51°14' W 004°22'815.1
2018-Feb-10 07:31N 51°09' W 004°31'714.9
2018-Feb-10 07:01N 51°03' W 004°39'714.8
2018-Feb-10 06:31N 50°58' W 004°48'815.0
2018-Feb-10 06:00N 50°53' W 004°57'715.0
2018-Feb-10 05:30N 50°48' W 005°06'815.0
2018-Feb-10 05:00N 50°43' W 005°15'714.9
2018-Feb-10 04:30N 50°38' W 005°23'714.9
2018-Feb-10 04:01N 50°33' W 005°32'714.8
2018-Feb-10 03:30N 50°28' W 005°41'714.8
2018-Feb-10 03:00N 50°23' W 005°50'813.6
2018-Feb-10 02:24N 50°16' W 005°54'614.3
2018-Feb-10 02:00N 50°10' W 005°53'714.3
2018-Feb-10 01:29N 50°02' W 005°53'  

Dump ship's entire track history